Time;durP1;ratioP1;P1;durP2;ratioP2;P2;SDS_P1;SDS_P2;PMS_P1;PMS_P2;Temp;Humidity;BMP_temperature;BMP_pressure;BME280_temperature;BME280_humidity;BME280_pressure;Samples;Min_cycle;Max_cycle;Signal;HPM_P1;HPM_P2
2023/09/25 00:01:28;;;;;;;1.48;0.70;;;;;;;15.85;100.00;99263.09;4485483;31;20084;-83
2023/09/25 00:03:56;;;;;;;3.37;0.80;;;;;;;15.95;100.00;99261.16;4485179;31;20557;-83
2023/09/25 00:06:24;;;;;;;4.18;1.00;;;;;;;16.02;100.00;99248.09;4485412;31;20546;-83
2023/09/25 00:08:52;;;;;;;2.45;0.68;;;;;;;16.01;100.00;99242.00;4485270;31;20127;-84
2023/09/25 00:11:19;;;;;;;5.00;1.10;;;;;;;16.02;100.00;99238.37;4485081;31;20096;-84
2023/09/25 00:13:47;;;;;;;3.15;0.90;;;;;;;15.95;100.00;99234.72;4485268;31;20567;-83
2023/09/25 00:16:16;;;;;;;1.77;1.00;;;;;;;16.05;100.00;99238.06;4475290;31;20092;-83
2023/09/25 00:18:44;;;;;;;1.12;0.82;;;;;;;15.90;100.00;99235.19;4469572;32;20097;-83
2023/09/25 00:21:12;;;;;;;3.50;0.82;;;;;;;15.99;100.00;99241.34;4469481;32;20548;-83
2023/09/25 00:23:40;;;;;;;2.72;1.17;;;;;;;16.09;100.00;99235.91;4468852;32;20140;-83
2023/09/25 00:26:08;;;;;;;4.05;0.82;;;;;;;16.07;100.00;99235.25;4469501;32;20491;-83
2023/09/25 00:28:35;;;;;;;1.30;0.70;;;;;;;15.95;100.00;99238.19;4469342;32;20088;-83
2023/09/25 00:31:03;;;;;;;3.00;1.00;;;;;;;15.91;100.00;99230.72;4469411;32;20085;-83
2023/09/25 00:33:31;;;;;;;2.55;1.20;;;;;;;16.00;100.00;99224.47;4469549;32;20119;-83
2023/09/25 00:35:58;;;;;;;1.50;0.93;;;;;;;15.99;100.00;99233.41;4469137;32;20116;-83
2023/09/25 00:38:26;;;;;;;1.08;0.88;;;;;;;16.08;100.00;99218.41;4469676;32;20085;-83
2023/09/25 00:40:54;;;;;;;1.67;0.75;;;;;;;16.08;100.00;99226.34;4469328;32;20093;-83
2023/09/25 00:43:21;;;;;;;3.83;1.35;;;;;;;16.09;100.00;99230.63;4469245;32;20167;-83
2023/09/25 00:45:49;;;;;;;1.58;1.08;;;;;;;16.08;100.00;99240.38;4469352;32;20139;-82
2023/09/25 00:48:28;;;;;;;4.70;1.85;;;;;;;16.01;100.00;99239.34;4467905;32;20507;-83
2023/09/25 00:50:58;;;;;;;1.15;0.80;;;;;;;16.04;100.00;99236.41;4468161;32;20476;-83
2023/09/25 00:53:27;;;;;;;1.60;0.90;;;;;;;16.21;100.00;99226.69;4474396;32;20160;-83
2023/09/25 00:55:55;;;;;;;10.25;1.12;;;;;;;16.21;100.00;99228.50;4483989;32;20148;-83
2023/09/25 00:58:25;;;;;;;3.92;1.00;;;;;;;16.18;100.00;99220.91;4484799;31;20119;-83
2023/09/25 01:00:54;;;;;;;4.30;0.73;;;;;;;16.20;100.00;99226.84;4485207;31;20571;-83
2023/09/25 01:03:21;;;;;;;1.40;0.90;;;;;;;16.13;100.00;99231.97;4484728;31;20092;-83
2023/09/25 01:05:49;;;;;;;2.30;0.80;;;;;;;16.22;100.00;99225.72;4484916;31;20139;-83
2023/09/25 01:08:17;;;;;;;4.20;1.00;;;;;;;16.10;100.00;99241.03;4485121;32;20092;-83
2023/09/25 01:10:46;;;;;;;2.30;1.00;;;;;;;16.18;100.00;99247.34;4484820;31;20152;-83
2023/09/25 01:13:15;;;;;;;1.37;0.90;;;;;;;16.18;100.00;99255.28;4484708;31;20162;-84
2023/09/25 01:15:43;;;;;;;5.70;1.00;;;;;;;16.20;100.00;99253.28;4478400;31;20101;-83
2023/09/25 01:18:10;;;;;;;1.98;1.10;;;;;;;16.19;100.00;99251.66;4469031;32;20096;-83
2023/09/25 01:20:38;;;;;;;1.52;0.80;;;;;;;16.06;100.00;99254.75;4469175;32;20126;-83
2023/09/25 01:23:05;;;;;;;2.90;1.05;;;;;;;16.00;100.00;99256.19;4469163;32;20111;-83
2023/09/25 01:25:35;;;;;;;3.30;0.98;;;;;;;16.07;100.00;99257.22;4469110;32;20105;-83
2023/09/25 01:28:03;;;;;;;3.85;1.05;;;;;;;16.04;100.00;99252.25;4468916;32;20454;-83
2023/09/25 01:30:32;;;;;;;3.83;1.00;;;;;;;16.12;100.00;99260.22;4467699;32;20699;-84
2023/09/25 01:32:59;;;;;;;1.65;1.00;;;;;;;16.16;100.00;99254.63;4468720;32;20093;-83
2023/09/25 01:35:27;;;;;;;3.97;1.08;;;;;;;16.17;100.00;99258.91;4467712;32;20085;-83
2023/09/25 01:38:00;;;;;;;0.95;0.80;;;;;;;16.13;100.00;99253.94;4469014;32;20104;-83
2023/09/25 01:40:27;;;;;;;1.12;0.80;;;;;;;16.17;100.00;99258.91;4469170;32;20093;-83
2023/09/25 01:42:55;;;;;;;2.70;0.88;;;;;;;16.22;100.00;99257.44;4469061;32;20614;-83
2023/09/25 01:45:23;;;;;;;2.05;0.90;;;;;;;16.31;100.00;99248.53;4469061;32;20483;-82
2023/09/25 01:47:52;;;;;;;1.45;0.85;;;;;;;16.39;100.00;99244.25;4468968;32;20159;-83
2023/09/25 01:50:23;;;;;;;2.67;0.85;;;;;;;16.36;100.00;99234.81;4468853;32;20462;-82
2023/09/25 01:52:54;;;;;;;3.03;1.15;;;;;;;16.42;100.00;99226.22;4471359;32;20123;-83
2023/09/25 01:55:22;;;;;;;2.87;1.30;;;;;;;16.32;100.00;99228.19;4484403;31;20089;-83
2023/09/25 01:57:50;;;;;;;3.33;1.00;;;;;;;16.28;100.00;99219.75;4484332;32;20104;-83
2023/09/25 02:00:18;;;;;;;1.95;0.90;;;;;;;16.24;100.00;99214.97;4484503;32;20518;-83
2023/09/25 02:02:48;;;;;;;2.37;1.05;;;;;;;16.21;100.00;99208.19;4484254;31;20093;-83
2023/09/25 02:05:16;;;;;;;5.50;1.00;;;;;;;16.20;100.00;99192.47;4484118;31;20399;-84
2023/09/25 02:07:44;;;;;;;2.30;0.85;;;;;;;16.16;100.00;99175.31;4484490;31;20747;-83
2023/09/25 02:10:13;;;;;;;0.90;0.80;;;;;;;16.17;100.00;99171.66;4484158;31;20097;-83
2023/09/25 02:12:40;;;;;;;1.00;0.90;;;;;;;16.14;100.00;99168.38;4483914;31;20101;-84
2023/09/25 02:15:08;;;;;;;2.03;0.90;;;;;;;16.02;100.00;99174.97;4481405;32;20109;-83
2023/09/25 02:17:36;;;;;;;3.10;0.90;;;;;;;15.96;100.00;99178.25;4468286;32;20097;-83
2023/09/25 02:20:38;;;;;;;1.15;0.90;;;;;;;15.92;100.00;99175.09;4468374;32;20115;-84
2023/09/25 02:22:58;;;;;;;1.95;1.00;;;;;;;15.88;100.00;99171.13;4466911;32;20160;-83
2023/09/25 02:25:25;;;;;;;2.33;1.50;;;;;;;15.83;100.00;99168.13;4468276;32;20149;-83
2023/09/25 02:27:52;;;;;;;6.15;1.00;;;;;;;15.88;100.00;99162.34;4468437;32;20165;-83
2023/09/25 02:30:19;;;;;;;4.40;0.80;;;;;;;15.96;100.00;99162.41;4468420;32;20097;-83
2023/09/25 02:32:49;;;;;;;1.45;0.80;;;;;;;15.89;100.00;99145.53;4468214;32;20493;-83
2023/09/25 02:35:16;;;;;;;2.75;1.65;;;;;;;16.01;100.00;99146.87;4467873;32;20194;-83
2023/09/25 02:37:44;;;;;;;2.50;1.20;;;;;;;15.98;100.00;99126.06;4467987;32;20101;-83
2023/09/25 02:40:13;;;;;;;1.95;1.10;;;;;;;15.93;100.00;99126.53;4467960;32;20119;-84
2023/09/25 02:42:46;;;;;;;1.30;1.00;;;;;;;15.93;100.00;99138.94;4468020;32;20093;-84
2023/09/25 02:45:15;;;;;;;1.75;1.12;;;;;;;15.93;100.00;99141.59;4467953;32;20490;-83
2023/09/25 02:47:43;;;;;;;3.53;0.90;;;;;;;16.01;100.00;99151.34;4469851;32;20100;-84
2023/09/25 02:50:12;;;;;;;2.25;1.05;;;;;;;16.00;100.00;99149.66;4470338;32;20100;-83
2023/09/25 02:52:42;;;;;;;1.95;0.90;;;;;;;16.00;100.00;99150.50;4471703;32;20115;-83
2023/09/25 02:55:10;;;;;;;5.82;0.80;;;;;;;16.08;100.00;99158.44;4485937;31;20088;-83
2023/09/25 02:57:38;;;;;;;3.10;1.05;;;;;;;16.13;100.00;99161.41;4485771;32;20160;-84
2023/09/25 03:00:10;;;;;;;0.98;0.80;;;;;;;16.12;100.00;99154.50;4485768;32;20088;-83
2023/09/25 03:02:38;;;;;;;2.65;1.08;;;;;;;16.26;100.00;99149.53;4485979;31;20389;-83
2023/09/25 03:05:06;;;;;;;6.47;1.12;;;;;;;16.10;100.00;99131.84;4485517;31;20119;-83
2023/09/25 03:07:34;;;;;;;2.83;1.08;;;;;;;16.13;100.00;99147.37;4485670;31;20152;-83
2023/09/25 03:10:03;;;;;;;2.08;1.10;;;;;;;16.12;100.00;99148.37;4485424;32;20143;-83
2023/09/25 03:12:31;;;;;;;1.30;0.90;;;;;;;16.11;100.00;99160.75;4485566;31;20089;-83
2023/09/25 03:14:58;;;;;;;3.30;1.27;;;;;;;16.10;100.00;99172.31;4483884;31;20100;-83
2023/09/25 03:17:27;;;;;;;2.83;1.20;;;;;;;16.15;100.00;99174.47;4469948;32;20119;-83
2023/09/25 03:19:55;;;;;;;6.97;1.00;;;;;;;16.16;100.00;99180.59;4469845;32;20161;-83
2023/09/25 03:22:24;;;;;;;4.93;1.00;;;;;;;16.14;100.00;99186.88;4470152;32;20088;-83
2023/09/25 03:24:51;;;;;;;0.93;0.80;;;;;;;15.98;100.00;99189.47;4469764;32;20148;-83
2023/09/25 03:27:19;;;;;;;2.40;1.08;;;;;;;16.01;100.00;99188.34;4469897;32;20105;-83
2023/09/25 03:29:46;;;;;;;3.03;0.90;;;;;;;16.05;100.00;99198.41;4470123;32;20105;-83
2023/09/25 03:32:14;;;;;;;2.17;0.95;;;;;;;16.06;100.00;99201.88;4469813;32;20123;-83
2023/09/25 03:34:42;;;;;;;3.30;0.80;;;;;;;16.08;100.00;99200.75;4469616;32;20085;-83
2023/09/25 03:37:09;;;;;;;2.42;0.82;;;;;;;16.08;100.00;99206.03;4469835;32;20433;-83
2023/09/25 03:39:37;;;;;;;4.43;1.20;;;;;;;16.11;100.00;99213.63;4470103;32;20466;-83
2023/09/25 03:42:05;;;;;;;4.25;1.12;;;;;;;16.11;100.00;99231.31;4469704;32;20097;-83
2023/09/25 03:44:33;;;;;;;3.20;0.90;;;;;;;16.14;100.00;99252.13;4469784;32;20456;-83
2023/09/25 03:47:00;;;;;;;1.83;1.00;;;;;;;16.21;100.00;99260.22;4469878;32;20092;-84
2023/09/25 03:49:29;;;;;;;3.20;0.90;;;;;;;16.19;100.00;99264.88;4470053;32;20122;-84
2023/09/25 03:51:56;;;;;;;1.70;1.10;;;;;;;16.13;100.00;99268.97;4469690;32;20567;-83
2023/09/25 03:54:24;;;;;;;1.23;0.90;;;;;;;16.14;100.00;99274.09;4482473;32;20157;-84
2023/09/25 03:56:52;;;;;;;7.10;1.10;;;;;;;16.23;100.00;99287.31;4485411;31;20116;-84
2023/09/25 03:59:19;;;;;;;4.68;1.10;;;;;;;16.26;100.00;99289.66;4484987;31;20126;-83
2023/09/25 04:01:47;;;;;;;2.28;1.23;;;;;;;16.27;100.00;99294.78;4484680;31;20108;-84
2023/09/25 04:04:15;;;;;;;1.17;0.88;;;;;;;16.29;100.00;99297.25;4485286;31;20145;-84
2023/09/25 04:06:43;;;;;;;5.85;1.17;;;;;;;16.34;100.00;99305.56;4484123;32;20108;-86
2023/09/25 04:09:10;;;;;;;2.80;0.80;;;;;;;16.44;100.00;99306.25;4478072;31;20737;-86
2023/09/25 04:11:38;;;;;;;3.10;1.00;;;;;;;16.54;100.00;99310.56;4481904;31;20107;-86
2023/09/25 04:14:06;;;;;;;5.57;1.15;;;;;;;16.58;100.00;99311.88;4484623;31;20409;-86
2023/09/25 04:16:34;;;;;;;1.48;0.90;;;;;;;16.61;100.00;99312.38;4486521;31;20205;-85
2023/09/25 04:19:04;;;;;;;6.75;1.30;;;;;;;16.60;100.00;99315.19;4485114;31;20571;-86
2023/09/25 04:21:32;;;;;;;4.12;1.25;;;;;;;16.56;100.00;99313.84;4485111;31;20422;-86
2023/09/25 04:24:01;;;;;;;3.53;0.90;;;;;;;16.48;100.00;99320.78;4482854;31;20153;-87
2023/09/25 04:26:29;;;;;;;3.92;1.10;;;;;;;16.57;100.00;99315.53;4486370;31;20179;-86
2023/09/25 04:28:57;;;;;;;2.05;0.80;;;;;;;16.50;100.00;99312.69;4499682;31;20091;-86
2023/09/25 04:31:28;;;;;;;5.35;2.70;;;;;;;16.59;100.00;99314.34;4490282;31;20093;-86
2023/09/25 04:33:59;;;;;;;2.08;1.00;;;;;;;16.62;100.00;99307.91;4482226;32;20089;-86
2023/09/25 04:36:26;;;;;;;4.57;0.85;;;;;;;16.67;100.00;99313.56;4481949;32;20097;-85
2023/09/25 04:38:54;;;;;;;2.37;1.52;;;;;;;16.67;100.00;99322.31;4485154;31;20458;-86
2023/09/25 04:41:21;;;;;;;1.83;1.27;;;;;;;16.74;100.00;99316.38;4483082;31;20155;-85
2023/09/25 04:43:49;;;;;;;4.47;1.30;;;;;;;16.70;100.00;99310.59;4500423;31;20107;-85
2023/09/25 04:46:17;;;;;;;4.78;1.08;;;;;;;16.79;100.00;99317.53;4487360;31;20173;-85
2023/09/25 04:48:45;;;;;;;4.35;1.20;;;;;;;16.84;100.00;99317.88;4483125;31;20097;-85
2023/09/25 04:51:16;;;;;;;3.78;1.10;;;;;;;16.75;100.00;99312.75;4484670;31;20164;-85
2023/09/25 04:53:44;;;;;;;3.28;0.80;;;;;;;16.65;100.00;99312.88;4482325;31;20106;-85
2023/09/25 04:56:20;;;;;;;3.10;0.98;;;;;;;16.67;100.00;99310.91;4483224;31;20131;-85
2023/09/25 04:58:49;;;;;;;2.47;1.12;;;;;;;16.60;100.00;99320.50;4484153;31;20511;-86
2023/09/25 05:01:17;;;;;;;5.55;1.23;;;;;;;16.59;100.00;99316.19;4484163;32;20088;-85
2023/09/25 05:03:45;;;;;;;5.55;1.62;;;;;;;16.54;100.00;99321.97;4484689;31;20111;-85
2023/09/25 05:06:12;;;;;;;7.20;1.10;;;;;;;16.50;100.00;99318.81;4482220;31;20113;-85
2023/09/25 05:08:44;;;;;;;1.73;1.02;;;;;;;16.56;100.00;99316.50;4484352;31;20253;-86
2023/09/25 05:11:11;;;;;;;5.60;1.20;;;;;;;16.63;100.00;99309.59;4483788;31;20112;-86
2023/09/25 05:13:40;;;;;;;1.55;1.15;;;;;;;16.65;100.00;99312.88;4482727;31;20100;-84
2023/09/25 05:16:07;;;;;;;6.15;1.77;;;;;;;16.72;100.00;99319.19;4483092;31;20108;-82
2023/09/25 05:18:34;;;;;;;3.60;1.05;;;;;;;16.71;100.00;99314.06;4481726;31;20810;-83
2023/09/25 05:21:02;;;;;;;3.12;1.00;;;;;;;16.66;100.00;99318.00;4484373;31;20124;-83
2023/09/25 05:23:31;;;;;;;3.58;1.00;;;;;;;16.71;100.00;99328.09;4484193;31;20118;-84
2023/09/25 05:25:58;;;;;;;2.70;1.10;;;;;;;16.78;100.00;99334.41;4473142;31;20097;-82
2023/09/25 05:28:26;;;;;;;3.83;1.12;;;;;;;16.84;100.00;99325.81;4488244;31;20119;-83
2023/09/25 05:30:54;;;;;;;3.37;1.08;;;;;;;16.91;100.00;99333.13;4482264;31;21114;-81
2023/09/25 05:33:22;;;;;;;2.15;1.00;;;;;;;16.90;100.00;99321.72;4485590;31;20099;-83
2023/09/25 05:35:50;;;;;;;10.50;1.50;;;;;;;17.02;100.00;99327.53;4484216;31;170222;-83
2023/09/25 05:38:19;;;;;;;2.17;1.30;;;;;;;17.09;100.00;99335.63;4487206;31;20122;-82
2023/09/25 05:40:47;;;;;;;5.20;1.23;;;;;;;17.17;100.00;99331.16;4483839;32;20156;-81
2023/09/25 05:43:14;;;;;;;6.87;1.10;;;;;;;17.11;100.00;99333.62;4475389;31;20145;-83
2023/09/25 05:45:42;;;;;;;2.72;1.10;;;;;;;17.27;100.00;99348.69;4481851;31;20112;-81
2023/09/25 05:48:10;;;;;;;6.00;1.42;;;;;;;17.26;100.00;99353.16;4481639;31;20116;-81
2023/09/25 05:50:39;;;;;;;11.23;1.25;;;;;;;17.31;100.00;99348.19;4483143;31;20088;-81
2023/09/25 05:53:08;;;;;;;5.28;1.35;;;;;;;17.38;100.00;99359.78;4487181;31;20743;-81
2023/09/25 05:55:35;;;;;;;6.85;1.40;;;;;;;17.40;100.00;99362.25;4479724;31;20089;-81
2023/09/25 05:58:04;;;;;;;5.05;1.23;;;;;;;17.49;100.00;99371.03;4482303;31;20156;-81
2023/09/25 06:00:34;;;;;;;2.25;1.20;;;;;;;17.56;100.00;99364.91;4473924;31;20092;-81
2023/09/25 06:03:04;;;;;;;4.35;1.42;;;;;;;17.71;100.00;99365.03;4469539;32;20114;-84
2023/09/25 06:05:31;;;;;;;8.13;1.23;;;;;;;17.79;100.00;99369.50;4469987;32;20142;-86
2023/09/25 06:07:58;;;;;;;3.03;1.50;;;;;;;17.89;100.00;99374.63;4466974;31;20101;-85
2023/09/25 06:10:26;;;;;;;4.22;1.73;;;;;;;17.99;100.00;99379.75;4466416;31;20097;-80
2023/09/25 06:12:53;;;;;;;2.78;1.23;;;;;;;18.10;100.00;99387.34;4469767;31;20126;-83
2023/09/25 06:15:23;;;;;;;3.10;1.40;;;;;;;18.16;100.00;99391.97;4466390;32;20425;-84
2023/09/25 06:17:50;;;;;;;5.18;1.40;;;;;;;18.23;100.00;99402.72;4470962;31;20120;-84
2023/09/25 06:20:20;;;;;;;9.63;1.58;;;;;;;18.25;100.00;99396.22;4468770;32;20096;-82
2023/09/25 06:22:48;;;;;;;6.70;1.70;;;;;;;18.32;100.00;99399.03;4473222;32;20444;-89
2023/09/25 06:25:21;;;;;;;4.87;1.33;;;;;;;18.20;100.00;99398.56;4472615;31;20104;-85
2023/09/25 06:27:54;;;;;;;4.90;1.52;;;;;;;18.26;100.00;99399.72;4468665;31;20112;-85
2023/09/25 06:30:23;;;;;;;3.33;1.40;;;;;;;18.37;100.00;99398.53;4472158;31;20811;-84
2023/09/25 06:32:55;;;;;;;4.12;1.17;;;;;;;18.40;100.00;99398.19;4472546;31;20093;-82
2023/09/25 06:35:25;;;;;;;9.63;1.65;;;;;;;18.46;100.00;99400.13;4469880;32;20120;-83
2023/09/25 06:37:53;;;;;;;9.98;1.67;;;;;;;18.58;100.00;99398.75;4471765;31;20608;-83
2023/09/25 06:40:21;;;;;;;3.72;1.48;;;;;;;18.37;100.00;99403.81;4468646;31;20172;-86
2023/09/25 06:42:49;;;;;;;5.35;1.50;;;;;;;18.26;100.00;99403.19;4471119;32;20101;-85
2023/09/25 06:45:16;;;;;;;8.02;1.60;;;;;;;18.38;100.00;99419.56;4472692;32;20119;-82
2023/09/25 06:47:46;;;;;;;5.18;1.42;;;;;;;18.25;100.00;99420.09;4473170;31;20088;-82
2023/09/25 06:50:15;;;;;;;2.47;1.12;;;;;;;18.38;100.00;99419.56;4474530;31;20101;-86
2023/09/25 06:52:42;;;;;;;7.70;1.48;;;;;;;18.48;100.00;99426.50;4468757;31;20095;-86
2023/09/25 06:55:10;;;;;;;4.68;1.77;;;;;;;18.57;100.00;99420.16;4473356;32;20127;-83
2023/09/25 06:57:37;;;;;;;5.35;2.03;;;;;;;18.54;100.00;99423.16;4472038;31;20104;-85
2023/09/25 07:00:06;;;;;;;3.92;1.37;;;;;;;18.59;100.00;99416.34;4476511;31;20088;-84
2023/09/25 07:02:51;;;;;;;4.72;1.37;;;;;;;18.77;100.00;99421.41;4477669;31;20096;-88
2023/09/25 07:05:19;;;;;;;3.35;1.48;;;;;;;18.69;100.00;99423.25;4472396;32;20149;-82
2023/09/25 07:07:47;;;;;;;3.08;1.25;;;;;;;18.77;100.00;99426.69;4474594;31;20175;-87
2023/09/25 07:10:14;;;;;;;3.45;1.70;;;;;;;19.15;100.00;99429.50;4474438;31;20100;-83
2023/09/25 07:12:42;;;;;;;5.62;1.50;;;;;;;19.10;100.00;99420.38;4470708;31;20214;-89
2023/09/25 07:15:10;;;;;;;4.22;1.62;;;;;;;18.97;100.00;99418.31;4473588;32;20125;-86
2023/09/25 07:17:37;;;;;;;3.83;1.33;;;;;;;19.20;100.00;99422.78;4472424;32;20161;-86
2023/09/25 07:20:06;;;;;;;6.47;1.42;;;;;;;19.31;100.00;99406.47;4475789;31;20116;-87
2023/09/25 07:22:33;;;;;;;3.00;1.42;;;;;;;19.32;100.00;99413.44;4471810;32;20093;-80
2023/09/25 07:25:02;;;;;;;5.97;1.70;;;;;;;19.22;100.00;99403.03;4468984;31;20089;-81
2023/09/25 07:27:30;;;;;;;4.80;1.30;;;;;;;19.04;100.00;99405.16;4470103;32;20504;-84
2023/09/25 07:29:59;;;;;;;5.97;1.60;;;;;;;19.19;100.00;99407.88;4475260;31;20088;-80
2023/09/25 07:32:26;;;;;;;4.07;1.73;;;;;;;19.09;100.00;99406.28;4473181;31;20901;-84
2023/09/25 07:34:57;;;;;;;7.28;1.67;;;;;;;19.14;100.00;99419.03;4469268;31;20139;-83
2023/09/25 07:37:24;;;;;;;5.82;2.00;;;;;;;19.05;100.00;99412.94;4470976;32;20104;-83
2023/09/25 07:39:51;;;;;;;10.80;2.10;;;;;;;19.08;100.00;99414.44;4467499;31;20643;-79
2023/09/25 07:42:20;;;;;;;3.42;1.62;;;;;;;19.11;100.00;99414.91;4473202;32;20100;-80
2023/09/25 07:44:49;;;;;;;4.35;1.60;;;;;;;19.11;100.00;99422.06;4470892;31;20127;-81
2023/09/25 07:47:18;;;;;;;3.65;1.67;;;;;;;19.18;100.00;99432.78;4474672;31;20092;-80
2023/09/25 07:49:46;;;;;;;7.00;2.10;;;;;;;19.13;100.00;99441.28;4469294;32;20101;-77
2023/09/25 07:52:17;;;;;;;5.55;1.90;;;;;;;19.22;100.00;99445.53;4472496;31;20458;-81
2023/09/25 07:54:51;;;;;;;6.62;1.87;;;;;;;19.27;100.00;99451.16;4469577;32;20119;-80
2023/09/25 07:57:20;;;;;;;7.57;1.77;;;;;;;19.49;100.00;99451.31;4472298;31;20104;-78
2023/09/25 07:59:48;;;;;;;5.07;1.70;;;;;;;19.68;100.00;99450.84;4471530;31;20100;-80
2023/09/25 08:02:20;;;;;;;12.20;1.80;;;;;;;19.95;100.00;99464.56;4472882;32;20465;-81
2023/09/25 08:04:49;;;;;;;7.27;1.90;;;;;;;20.19;100.00;99473.31;4472664;31;20145;-80
2023/09/25 08:07:18;;;;;;;4.45;1.60;;;;;;;20.57;100.00;99483.88;4470985;32;20084;-79
2023/09/25 08:09:46;;;;;;;6.12;2.62;;;;;;;20.56;100.00;99482.25;4473843;31;20122;-79
2023/09/25 08:12:15;;;;;;;7.20;1.62;;;;;;;20.16;100.00;99481.66;4471579;31;20172;-79
2023/09/25 08:14:42;;;;;;;4.65;1.98;;;;;;;19.99;100.00;99489.81;4472833;32;20475;-77
2023/09/25 08:17:09;;;;;;;12.45;2.22;;;;;;;19.91;100.00;99487.22;4473596;31;20092;-79
2023/09/25 08:19:36;;;;;;;5.30;2.30;;;;;;;20.10;100.00;99485.88;4474135;31;20114;-83
2023/09/25 08:22:04;;;;;;;6.20;2.20;;;;;;;20.13;100.00;99479.38;4472713;31;20112;-80
2023/09/25 08:24:32;;;;;;;6.43;1.92;;;;;;;20.56;100.00;99476.94;4472516;31;20100;-79
2023/09/25 08:27:04;;;;;;;5.72;1.95;;;;;;;20.77;100.00;99472.69;4472797;31;20092;-84
2023/09/25 08:29:32;;;;;;;6.65;1.90;;;;;;;20.69;100.00;99470.97;4477217;31;20151;-81
2023/09/25 08:32:01;;;;;;;8.35;2.20;;;;;;;20.77;100.00;99478.84;4473568;32;20092;-81
2023/09/25 08:34:28;;;;;;;3.92;1.85;;;;;;;20.81;100.00;99487.31;4475065;31;20100;-80
2023/09/25 08:36:55;;;;;;;4.37;2.00;;;;;;;20.56;100.00;99484.91;4473929;31;20207;-79
2023/09/25 08:39:22;;;;;;;6.12;2.05;;;;;;;20.56;100.00;99474.28;4472899;31;20096;-80
2023/09/25 08:41:50;;;;;;;4.87;2.17;;;;;;;20.89;100.00;99472.03;4475006;31;20183;-79
2023/09/25 08:44:18;;;;;;;6.25;2.08;;;;;;;20.86;100.00;99464.44;4472658;31;20157;-79
2023/09/25 08:46:46;;;;;;;4.85;2.17;;;;;;;20.99;100.00;99463.75;4474888;32;20114;-79
2023/09/25 08:49:13;;;;;;;7.18;2.17;;;;;;;20.81;100.00;99472.12;4472758;31;20446;-79
2023/09/25 08:51:41;;;;;;;8.60;2.20;;;;;;;20.79;100.00;99458.19;4475300;32;20145;-78
2023/09/25 08:54:09;;;;;;;4.93;2.08;;;;;;;20.70;100.00;99465.44;4463140;32;20116;-78
2023/09/25 08:56:37;;;;;;;3.62;1.83;;;;;;;20.59;100.00;99470.38;4465789;32;20172;-78
2023/09/25 08:59:08;;;;;;;5.95;2.03;;;;;;;20.77;100.00;99470.84;4471110;32;21998;-79
2023/09/25 09:01:37;;;;;;;8.05;2.65;;;;;;;20.85;100.00;99472.59;4471586;31;20205;-83
2023/09/25 09:04:06;;;;;;;10.75;2.70;;;;;;;21.00;100.00;99475.22;4469660;32;20104;-77
2023/09/25 09:06:34;;;;;;;8.93;2.10;;;;;;;21.18;100.00;99477.47;4470302;31;20122;-78
2023/09/25 09:09:02;;;;;;;6.12;2.15;;;;;;;21.33;100.00;99474.75;4473059;32;20096;-78
2023/09/25 09:11:30;;;;;;;5.93;2.05;;;;;;;21.59;100.00;99468.88;4473263;32;20118;-78
2023/09/25 09:14:01;;;;;;;19.08;5.53;;;;;;;21.60;100.00;99465.19;4472878;32;20096;-78
2023/09/25 09:16:29;;;;;;;4.32;2.08;;;;;;;21.54;100.00;99481.97;4470779;31;20123;-77
2023/09/25 09:19:09;;;;;;;4.43;1.65;;;;;;;21.60;100.00;99483.88;4474663;32;20130;-77
2023/09/25 09:21:38;;;;;;;6.10;2.00;;;;;;;21.62;100.00;99489.84;4473166;32;20152;-77
2023/09/25 09:24:08;;;;;;;5.57;1.98;;;;;;;21.67;100.00;99491.94;4467758;31;20138;-78
2023/09/25 09:26:37;;;;;;;5.78;2.40;;;;;;;21.78;100.00;99489.56;4467104;31;20092;-79
2023/09/25 09:29:12;;;;;;;9.15;2.00;;;;;;;21.86;100.00;99495.78;4471636;31;20125;-79
2023/09/25 09:31:41;;;;;;;4.35;2.10;;;;;;;21.66;100.00;99492.94;4472825;31;20088;-79
2023/09/25 09:34:09;;;;;;;7.57;2.00;;;;;;;21.70;100.00;99495.03;4467232;32;20228;-79
2023/09/25 09:36:37;;;;;;;4.25;2.00;;;;;;;21.55;100.00;99503.09;4469867;32;20080;-79
2023/09/25 09:39:10;;;;;;;6.18;2.03;;;;;;;21.32;100.00;99500.59;4471215;32;20097;-78
2023/09/25 09:41:40;;;;;;;7.43;2.22;;;;;;;21.06;100.00;99496.63;4472256;32;20092;-78
2023/09/25 09:44:10;;;;;;;3.75;2.00;;;;;;;21.21;100.00;99493.91;4469175;32;20149;-79
2023/09/25 09:46:37;;;;;;;6.78;2.10;;;;;;;21.34;100.00;99490.56;4474602;31;20112;-77
2023/09/25 09:49:05;;;;;;;4.82;2.12;;;;;;;21.52;100.00;99484.00;4468541;32;20096;-80
2023/09/25 09:51:33;;;;;;;5.40;2.30;;;;;;;21.62;100.00;99484.50;4472509;32;20164;-82
2023/09/25 09:54:05;;;;;;;10.43;2.45;;;;;;;21.60;100.00;99475.87;4474553;32;21913;-83
2023/09/25 09:56:39;;;;;;;3.00;2.03;;;;;;;21.76;100.00;99474.78;4471310;32;20408;-80
2023/09/25 09:59:09;;;;;;;5.60;2.05;;;;;;;21.83;100.00;99475.63;4474109;32;20112;-80
2023/09/25 10:01:43;;;;;;;7.97;2.08;;;;;;;22.05;100.00;99479.09;4473773;32;20164;-80
2023/09/25 10:04:12;;;;;;;12.98;2.65;;;;;;;22.11;100.00;99481.00;4468950;32;20085;-81
2023/09/25 10:07:04;;;;;;;4.87;2.20;;;;;;;22.10;100.00;99487.34;4469183;32;20179;-81
2023/09/25 10:09:32;;;;;;;6.97;1.67;;;;;;;22.11;100.00;99486.31;4470314;32;20120;-81
2023/09/25 10:12:02;;;;;;;4.72;2.05;;;;;;;22.42;99.35;99495.81;4477510;32;20112;-79
2023/09/25 10:14:37;;;;;;;8.50;2.60;;;;;;;22.36;97.80;99493.09;4476298;32;20080;-80
2023/09/25 10:17:06;;;;;;;4.43;2.15;;;;;;;22.35;99.74;99494.94;4476747;32;20165;-80
2023/09/25 10:19:36;;;;;;;5.80;2.75;;;;;;;22.41;98.35;99493.34;4474155;32;20152;-81
2023/09/25 10:22:20;;;;;;;8.80;2.50;;;;;;;22.31;98.65;99491.81;4475293;32;20446;-83
2023/09/25 10:24:58;;;;;;;4.05;2.15;;;;;;;22.14;100.00;99493.94;4482325;32;20089;-83
2023/09/25 10:27:27;;;;;;;6.15;2.10;;;;;;;22.04;100.00;99495.31;4478355;32;20632;-81
2023/09/25 10:30:06;;;;;;;4.22;2.20;;;;;;;22.12;100.00;99495.16;4481267;32;20209;-82
2023/09/25 10:32:38;;;;;;;3.65;1.87;;;;;;;22.40;100.00;99497.84;4481644;31;20600;-82
2023/09/25 10:35:40;;;;;;;5.45;2.15;;;;;;;22.55;100.00;99491.56;4477796;31;20130;-83
2023/09/25 10:38:21;;;;;;;7.55;2.28;;;;;;;22.77;99.04;99494.94;4474205;32;20453;-82
2023/09/25 10:41:02;;;;;;;8.88;2.37;;;;;;;22.60;99.49;99481.09;4475710;32;20093;-83
2023/09/25 10:43:30;;;;;;;5.97;2.17;;;;;;;22.40;100.00;99491.69;4477613;31;20101;-83
2023/09/25 10:45:58;;;;;;;7.05;2.42;;;;;;;22.43;100.00;99489.44;4478130;31;20165;-81
2023/09/25 10:48:27;;;;;;;4.18;2.37;;;;;;;22.40;100.00;99484.50;4471804;32;20149;-84
2023/09/25 10:50:55;;;;;;;8.68;2.78;;;;;;;22.45;100.00;99500.75;4472933;32;20109;-87
2023/09/25 10:53:23;;;;;;;6.85;2.50;;;;;;;22.38;100.00;99494.56;4475199;31;20467;-84
2023/09/25 10:55:51;;;;;;;8.35;2.15;;;;;;;22.43;99.67;99494.78;4481657;32;20093;-85
2023/09/25 10:58:20;;;;;;;9.13;2.50;;;;;;;22.79;100.00;99496.41;4475885;32;20241;-86
2023/09/25 11:00:49;;;;;;;5.82;2.53;;;;;;;23.14;96.67;99498.22;4481115;31;20141;-83
2023/09/25 11:03:18;;;;;;;5.15;2.58;;;;;;;23.07;96.29;99498.13;4480277;31;20084;-85
2023/09/25 11:05:51;;;;;;;6.50;2.65;;;;;;;23.13;97.16;99496.56;4478024;31;20159;-82
2023/09/25 11:08:21;;;;;;;10.02;2.50;;;;;;;23.20;95.84;99489.38;4475485;32;20093;-83
2023/09/25 11:10:52;;;;;;;9.70;2.62;;;;;;;23.26;96.59;99488.56;4475541;32;20100;-83
2023/09/25 11:13:20;;;;;;;7.12;2.83;;;;;;;23.26;95.31;99482.41;4473087;31;20126;-82
2023/09/25 11:15:48;;;;;;;5.62;2.25;;;;;;;23.25;96.92;99486.09;4476080;31;21158;-86
2023/09/25 11:18:18;;;;;;;8.30;2.92;;;;;;;22.81;97.45;99482.84;4475759;31;20410;-82
2023/09/25 11:20:45;;;;;;;4.05;2.17;;;;;;;22.37;99.65;99474.19;4477315;32;20096;-85
2023/09/25 11:23:15;;;;;;;5.32;2.20;;;;;;;22.56;98.68;99474.50;4479800;32;20080;-84
2023/09/25 11:25:50;;;;;;;7.10;2.67;;;;;;;22.99;98.31;99474.28;4477375;32;20123;-84
2023/09/25 11:28:24;;;;;;;3.40;2.42;;;;;;;23.26;96.75;99471.72;4480811;31;20141;-83
2023/09/25 11:30:51;;;;;;;5.78;2.78;;;;;;;23.48;94.73;99478.53;4484900;31;20119;-83
2023/09/25 11:33:23;;;;;;;9.55;2.25;;;;;;;23.73;94.13;99470.72;4484977;31;20089;-84
2023/09/25 11:35:54;;;;;;;8.32;2.80;;;;;;;23.80;93.20;99475.25;4479961;32;20131;-83